Oasis, Utah
Current Conditions -  °F | °C
As of 8:55 AM on Saturday 25 Oct 2014 (Local Time) from KDTA Reporting Station
Clear Clear  
Wind Chill: 58°   Ceiling: Unl
Heat Index: 58°   Visibility: 10mi
Dew Point: 28°   Wind: 6mph
Humidity: 32%   Direction: 160°SSE
Pressure: 30.14"   Gusts: NA
Location:  39.29°N, 112.63°W
Report Text: KDTA 251455Z AUTO 16005KT 10SM CLR 15/M02 A3014 RMK AO1 T01451021
Loading
Personal Weather Stations






























Interactive Weather Map
Tropical Storm Tracking
New forecast layout! Learn more

10-Day Weather Forecast

Advertisements
Track Severe Weather on mobile